sensor_id;sensor_type;location;lat;lon;timestamp;temperature;humidity
41953;DHT22;47381;28.206;112.926;2022-07-03T00:02:06;30.20;69.40
41953;DHT22;47381;28.206;112.926;2022-07-03T00:04:33;30.20;68.30
41953;DHT22;47381;28.206;112.926;2022-07-03T00:07:00;30.20;70.70
41953;DHT22;47381;28.206;112.926;2022-07-03T00:09:28;30.20;68.30
41953;DHT22;47381;28.206;112.926;2022-07-03T00:11:55;30.20;68.60
41953;DHT22;47381;28.206;112.926;2022-07-03T00:14:22;30.20;68.40
41953;DHT22;47381;28.206;112.926;2022-07-03T00:16:50;30.20;67.10
41953;DHT22;47381;28.206;112.926;2022-07-03T00:19:20;30.20;67.50
41953;DHT22;47381;28.206;112.926;2022-07-03T00:21:59;30.20;67.70
41953;DHT22;47381;28.206;112.926;2022-07-03T00:27:15;30.20;66.40
41953;DHT22;47381;28.206;112.926;2022-07-03T00:29:43;30.20;65.50
41953;DHT22;47381;28.206;112.926;2022-07-03T00:32:13;30.20;67.10
41953;DHT22;47381;28.206;112.926;2022-07-03T00:34:44;30.20;67.30
41953;DHT22;47381;28.206;112.926;2022-07-03T00:37:13;30.40;67.90
41953;DHT22;47381;28.206;112.926;2022-07-03T00:39:42;30.30;68.20
41953;DHT22;47381;28.206;112.926;2022-07-03T00:42:10;30.30;65.90
41953;DHT22;47381;28.206;112.926;2022-07-03T00:44:49;30.30;66.40
41953;DHT22;47381;28.206;112.926;2022-07-03T00:47:17;30.30;67.40
41953;DHT22;47381;28.206;112.926;2022-07-03T00:49:50;30.30;67.50
41953;DHT22;47381;28.206;112.926;2022-07-03T00:55:39;30.40;67.10
41953;DHT22;47381;28.206;112.926;2022-07-03T00:58:32;30.40;65.50
41953;DHT22;47381;28.206;112.926;2022-07-03T01:01:02;30.30;66.00
41953;DHT22;47381;28.206;112.926;2022-07-03T01:03:33;30.40;65.80
41953;DHT22;47381;28.206;112.926;2022-07-03T01:06:22;30.40;65.30
41953;DHT22;47381;28.206;112.926;2022-07-03T01:08:51;30.40;65.50
41953;DHT22;47381;28.206;112.926;2022-07-03T01:11:31;30.30;65.50
41953;DHT22;47381;28.206;112.926;2022-07-03T01:14:21;30.30;65.60
41953;DHT22;47381;28.206;112.926;2022-07-03T01:16:58;30.30;65.00
41953;DHT22;47381;28.206;112.926;2022-07-03T01:19:44;30.40;65.50
41953;DHT22;47381;28.206;112.926;2022-07-03T01:22:22;30.40;65.70
41953;DHT22;47381;28.206;112.926;2022-07-03T01:33:18;30.30;66.20
41953;DHT22;47381;28.206;112.926;2022-07-03T01:38:31;30.40;66.30
41953;DHT22;47381;28.206;112.926;2022-07-03T01:40:59;30.40;65.50
41953;DHT22;47381;28.206;112.926;2022-07-03T01:43:32;30.50;65.40
41953;DHT22;47381;28.206;112.926;2022-07-03T01:46:00;30.50;65.30
41953;DHT22;47381;28.206;112.926;2022-07-03T01:48:29;30.50;65.10
41953;DHT22;47381;28.206;112.926;2022-07-03T01:50:57;30.50;65.50
41953;DHT22;47381;28.206;112.926;2022-07-03T01:53:29;30.50;65.60
41953;DHT22;47381;28.206;112.926;2022-07-03T01:56:01;30.50;65.20
41953;DHT22;47381;28.206;112.926;2022-07-03T01:58:29;30.60;65.20
41953;DHT22;47381;28.206;112.926;2022-07-03T02:01:06;30.60;65.40
41953;DHT22;47381;28.206;112.926;2022-07-03T02:03:37;30.60;64.80
41953;DHT22;47381;28.206;112.926;2022-07-03T02:07:18;30.60;65.20
41953;DHT22;47381;28.206;112.926;2022-07-03T02:09:18;30.50;64.80
41953;DHT22;47381;28.206;112.926;2022-07-03T02:11:51;30.50;65.00
41953;DHT22;47381;28.206;112.926;2022-07-03T02:14:23;30.50;65.00
41953;DHT22;47381;28.206;112.926;2022-07-03T02:19:58;30.50;64.90
41953;DHT22;47381;28.206;112.926;2022-07-03T02:22:40;30.60;64.80
41953;DHT22;47381;28.206;112.926;2022-07-03T02:25:19;30.60;64.60
41953;DHT22;47381;28.206;112.926;2022-07-03T02:30:43;30.60;64.30
41953;DHT22;47381;28.206;112.926;2022-07-03T02:33:11;30.60;64.10
41953;DHT22;47381;28.206;112.926;2022-07-03T02:35:48;30.70;63.70
41953;DHT22;47381;28.206;112.926;2022-07-03T02:38:21;30.70;63.00
41953;DHT22;47381;28.206;112.926;2022-07-03T02:41:27;30.70;61.80
41953;DHT22;47381;28.206;112.926;2022-07-03T02:52:42;30.60;64.50
41953;DHT22;47381;28.206;112.926;2022-07-03T02:55:40;30.60;64.40
41953;DHT22;47381;28.206;112.926;2022-07-03T03:01:34;30.60;64.20
41953;DHT22;47381;28.206;112.926;2022-07-03T03:04:12;30.70;63.40
41953;DHT22;47381;28.206;112.926;2022-07-03T03:06:48;30.70;63.00
41953;DHT22;47381;28.206;112.926;2022-07-03T03:09:24;30.80;62.90
41953;DHT22;47381;28.206;112.926;2022-07-03T03:12:13;30.80;63.20
41953;DHT22;47381;28.206;112.926;2022-07-03T03:14:48;30.80;63.70
41953;DHT22;47381;28.206;112.926;2022-07-03T03:17:43;30.90;63.60
41953;DHT22;47381;28.206;112.926;2022-07-03T03:20:15;30.90;63.30
41953;DHT22;47381;28.206;112.926;2022-07-03T03:25:19;30.90;63.50
41953;DHT22;47381;28.206;112.926;2022-07-03T03:27:46;30.90;63.30
41953;DHT22;47381;28.206;112.926;2022-07-03T03:30:13;30.90;63.20
41953;DHT22;47381;28.206;112.926;2022-07-03T03:32:43;31.00;63.20
41953;DHT22;47381;28.206;112.926;2022-07-03T03:35:10;31.00;63.40
41953;DHT22;47381;28.206;112.926;2022-07-03T03:37:57;31.00;63.70
41953;DHT22;47381;28.206;112.926;2022-07-03T03:40:34;31.00;63.60
41953;DHT22;47381;28.206;112.926;2022-07-03T03:43:02;31.00;63.40
41953;DHT22;47381;28.206;112.926;2022-07-03T03:45:30;31.00;63.70
41953;DHT22;47381;28.206;112.926;2022-07-03T03:47:59;31.00;63.50
41953;DHT22;47381;28.206;112.926;2022-07-03T03:50:26;31.00;63.30
41953;DHT22;47381;28.206;112.926;2022-07-03T03:52:54;31.10;63.40
41953;DHT22;47381;28.206;112.926;2022-07-03T03:55:21;31.10;63.00
41953;DHT22;47381;28.206;112.926;2022-07-03T03:58:08;31.10;62.90
41953;DHT22;47381;28.206;112.926;2022-07-03T04:00:35;31.10;63.30
41953;DHT22;47381;28.206;112.926;2022-07-03T04:03:02;31.10;63.60
41953;DHT22;47381;28.206;112.926;2022-07-03T04:05:29;31.10;62.90
41953;DHT22;47381;28.206;112.926;2022-07-03T04:07:57;31.10;62.80
41953;DHT22;47381;28.206;112.926;2022-07-03T04:10:24;31.20;62.60
41953;DHT22;47381;28.206;112.926;2022-07-03T04:12:53;31.20;63.10
41953;DHT22;47381;28.206;112.926;2022-07-03T04:15:20;31.20;63.10
41953;DHT22;47381;28.206;112.926;2022-07-03T04:17:51;31.20;62.90
41953;DHT22;47381;28.206;112.926;2022-07-03T04:20:38;31.20;63.20
41953;DHT22;47381;28.206;112.926;2022-07-03T04:23:07;31.10;63.80
41953;DHT22;47381;28.206;112.926;2022-07-03T04:25:34;31.10;63.30
41953;DHT22;47381;28.206;112.926;2022-07-03T04:28:01;31.10;63.50
41953;DHT22;47381;28.206;112.926;2022-07-03T04:30:29;31.20;63.40
41953;DHT22;47381;28.206;112.926;2022-07-03T04:32:56;31.20;63.50
41953;DHT22;47381;28.206;112.926;2022-07-03T04:35:23;31.20;63.70
41953;DHT22;47381;28.206;112.926;2022-07-03T04:37:50;31.20;63.30
41953;DHT22;47381;28.206;112.926;2022-07-03T04:40:17;31.20;63.50
41953;DHT22;47381;28.206;112.926;2022-07-03T04:42:44;31.20;63.70
41953;DHT22;47381;28.206;112.926;2022-07-03T04:45:32;31.10;63.20
41953;DHT22;47381;28.206;112.926;2022-07-03T04:47:59;31.00;63.30
41953;DHT22;47381;28.206;112.926;2022-07-03T04:50:28;31.10;63.40
41953;DHT22;47381;28.206;112.926;2022-07-03T04:52:55;31.00;63.70
41953;DHT22;47381;28.206;112.926;2022-07-03T04:55:23;31.00;63.80
41953;DHT22;47381;28.206;112.926;2022-07-03T04:57:50;30.90;64.40
41953;DHT22;47381;28.206;112.926;2022-07-03T05:00:17;30.90;64.10
41953;DHT22;47381;28.206;112.926;2022-07-03T05:02:44;30.90;63.90
41953;DHT22;47381;28.206;112.926;2022-07-03T05:05:11;30.90;63.60
41953;DHT22;47381;28.206;112.926;2022-07-03T05:07:38;31.00;64.20
41953;DHT22;47381;28.206;112.926;2022-07-03T05:10:07;30.90;64.60
41953;DHT22;47381;28.206;112.926;2022-07-03T05:12:35;30.90;64.20
41953;DHT22;47381;28.206;112.926;2022-07-03T05:15:02;30.90;64.30
41953;DHT22;47381;28.206;112.926;2022-07-03T05:17:29;30.90;64.00
41953;DHT22;47381;28.206;112.926;2022-07-03T05:19:56;30.80;64.30
41953;DHT22;47381;28.206;112.926;2022-07-03T05:23:02;30.80;64.40
41953;DHT22;47381;28.206;112.926;2022-07-03T05:25:31;30.70;63.80
41953;DHT22;47381;28.206;112.926;2022-07-03T05:28:08;30.80;63.70
41953;DHT22;47381;28.206;112.926;2022-07-03T05:30:44;30.70;64.20
41953;DHT22;47381;28.206;112.926;2022-07-03T05:33:11;30.70;64.90
41953;DHT22;47381;28.206;112.926;2022-07-03T05:35:43;30.70;64.50
41953;DHT22;47381;28.206;112.926;2022-07-03T05:38:14;30.70;64.70
41953;DHT22;47381;28.206;112.926;2022-07-03T05:41:00;30.70;64.60
41953;DHT22;47381;28.206;112.926;2022-07-03T05:43:31;30.70;64.70
41953;DHT22;47381;28.206;112.926;2022-07-03T05:45:59;30.70;64.90
41953;DHT22;47381;28.206;112.926;2022-07-03T05:48:27;30.70;64.40
41953;DHT22;47381;28.206;112.926;2022-07-03T05:50:54;30.70;64.40
41953;DHT22;47381;28.206;112.926;2022-07-03T05:53:21;30.80;64.00
41953;DHT22;47381;28.206;112.926;2022-07-03T05:55:49;30.80;64.00
41953;DHT22;47381;28.206;112.926;2022-07-03T05:58:21;30.80;64.10
41953;DHT22;47381;28.206;112.926;2022-07-03T06:00:51;30.80;63.90
41953;DHT22;47381;28.206;112.926;2022-07-03T06:03:18;30.80;63.30
41953;DHT22;47381;28.206;112.926;2022-07-03T06:05:46;30.80;63.30
41953;DHT22;47381;28.206;112.926;2022-07-03T06:08:13;30.80;63.40
41953;DHT22;47381;28.206;112.926;2022-07-03T06:10:44;30.80;64.00
41953;DHT22;47381;28.206;112.926;2022-07-03T06:13:14;30.80;64.10
41953;DHT22;47381;28.206;112.926;2022-07-03T06:15:42;30.80;64.00
41953;DHT22;47381;28.206;112.926;2022-07-03T06:18:09;30.80;64.40
41953;DHT22;47381;28.206;112.926;2022-07-03T06:20:48;30.80;64.30
41953;DHT22;47381;28.206;112.926;2022-07-03T06:23:23;30.70;54.00
41953;DHT22;47381;28.206;112.926;2022-07-03T06:25:50;30.80;58.70
41953;DHT22;47381;28.206;112.926;2022-07-03T06:28:17;30.80;58.20
41953;DHT22;47381;28.206;112.926;2022-07-03T06:30:45;30.80;57.10
41953;DHT22;47381;28.206;112.926;2022-07-03T06:33:32;30.80;56.20
41953;DHT22;47381;28.206;112.926;2022-07-03T06:35:59;30.80;55.60
41953;DHT22;47381;28.206;112.926;2022-07-03T06:38:26;30.80;55.20
41953;DHT22;47381;28.206;112.926;2022-07-03T06:40:53;30.90;55.10
41953;DHT22;47381;28.206;112.926;2022-07-03T06:43:20;30.90;54.70
41953;DHT22;47381;28.206;112.926;2022-07-03T06:46:08;30.80;54.40
41953;DHT22;47381;28.206;112.926;2022-07-03T06:48:35;30.80;54.00
41953;DHT22;47381;28.206;112.926;2022-07-03T06:51:03;30.80;53.60
41953;DHT22;47381;28.206;112.926;2022-07-03T06:53:32;30.90;53.50
41953;DHT22;47381;28.206;112.926;2022-07-03T06:56:00;30.80;53.30
41953;DHT22;47381;28.206;112.926;2022-07-03T06:58:48;30.80;53.50
41953;DHT22;47381;28.206;112.926;2022-07-03T07:01:15;30.80;53.30
41953;DHT22;47381;28.206;112.926;2022-07-03T07:03:42;30.80;53.30
41953;DHT22;47381;28.206;112.926;2022-07-03T07:06:15;30.80;53.20
41953;DHT22;47381;28.206;112.926;2022-07-03T07:08:45;30.80;53.90
41953;DHT22;47381;28.206;112.926;2022-07-03T07:11:13;30.80;53.90
41953;DHT22;47381;28.206;112.926;2022-07-03T07:13:44;30.80;53.80
41953;DHT22;47381;28.206;112.926;2022-07-03T07:16:11;30.90;53.80
41953;DHT22;47381;28.206;112.926;2022-07-03T07:18:42;30.80;53.50
41953;DHT22;47381;28.206;112.926;2022-07-03T07:21:11;30.80;53.70
41953;DHT22;47381;28.206;112.926;2022-07-03T07:23:38;30.80;53.70
41953;DHT22;47381;28.206;112.926;2022-07-03T07:26:08;30.80;53.80
41953;DHT22;47381;28.206;112.926;2022-07-03T07:28:35;30.90;54.00
41953;DHT22;47381;28.206;112.926;2022-07-03T07:31:04;30.80;53.90
41953;DHT22;47381;28.206;112.926;2022-07-03T07:33:33;30.80;53.80
41953;DHT22;47381;28.206;112.926;2022-07-03T07:36:22;30.80;53.90
41953;DHT22;47381;28.206;112.926;2022-07-03T07:38:51;30.80;53.80
41953;DHT22;47381;28.206;112.926;2022-07-03T07:41:38;30.80;53.40
41953;DHT22;47381;28.206;112.926;2022-07-03T07:44:06;30.90;53.40
41953;DHT22;47381;28.206;112.926;2022-07-03T07:46:37;30.90;53.30
41953;DHT22;47381;28.206;112.926;2022-07-03T07:49:08;30.80;53.10
41953;DHT22;47381;28.206;112.926;2022-07-03T07:51:36;30.80;52.70
41953;DHT22;47381;28.206;112.926;2022-07-03T07:54:04;30.80;52.70
41953;DHT22;47381;28.206;112.926;2022-07-03T07:56:31;30.90;52.70
41953;DHT22;47381;28.206;112.926;2022-07-03T07:59:18;30.80;52.40
41953;DHT22;47381;28.206;112.926;2022-07-03T08:01:46;30.80;52.30
41953;DHT22;47381;28.206;112.926;2022-07-03T08:04:31;30.80;51.90
41953;DHT22;47381;28.206;112.926;2022-07-03T08:07:16;30.80;51.70
41953;DHT22;47381;28.206;112.926;2022-07-03T08:09:43;30.80;51.50
41953;DHT22;47381;28.206;112.926;2022-07-03T08:12:12;30.80;51.40
41953;DHT22;47381;28.206;112.926;2022-07-03T08:14:40;30.80;51.40
41953;DHT22;47381;28.206;112.926;2022-07-03T08:17:07;30.80;51.40
41953;DHT22;47381;28.206;112.926;2022-07-03T08:19:35;30.80;51.60
41953;DHT22;47381;28.206;112.926;2022-07-03T08:22:22;30.70;51.60
41953;DHT22;47381;28.206;112.926;2022-07-03T08:24:50;30.80;51.40
41953;DHT22;47381;28.206;112.926;2022-07-03T08:27:22;30.80;50.90
41953;DHT22;47381;28.206;112.926;2022-07-03T08:29:51;30.80;50.80
41953;DHT22;47381;28.206;112.926;2022-07-03T08:32:19;30.70;50.40
41953;DHT22;47381;28.206;112.926;2022-07-03T08:34:47;30.70;50.00
41953;DHT22;47381;28.206;112.926;2022-07-03T08:37:14;30.70;49.90
41953;DHT22;47381;28.206;112.926;2022-07-03T08:39:41;30.70;49.70
41953;DHT22;47381;28.206;112.926;2022-07-03T08:42:11;30.70;49.50
41953;DHT22;47381;28.206;112.926;2022-07-03T08:44:43;30.70;49.20
41953;DHT22;47381;28.206;112.926;2022-07-03T08:47:15;30.70;49.10
41953;DHT22;47381;28.206;112.926;2022-07-03T08:49:45;30.70;49.20
41953;DHT22;47381;28.206;112.926;2022-07-03T08:52:14;30.70;49.10
41953;DHT22;47381;28.206;112.926;2022-07-03T08:55:05;30.70;49.20
41953;DHT22;47381;28.206;112.926;2022-07-03T08:57:33;30.70;49.30
41953;DHT22;47381;28.206;112.926;2022-07-03T09:00:06;30.70;49.30
41953;DHT22;47381;28.206;112.926;2022-07-03T09:02:47;30.70;49.30
41953;DHT22;47381;28.206;112.926;2022-07-03T09:05:16;30.70;49.50
41953;DHT22;47381;28.206;112.926;2022-07-03T09:07:45;30.60;49.50
41953;DHT22;47381;28.206;112.926;2022-07-03T09:10:15;30.70;49.50
41953;DHT22;47381;28.206;112.926;2022-07-03T09:12:48;30.70;49.80
41953;DHT22;47381;28.206;112.926;2022-07-03T09:15:16;30.70;49.70
41953;DHT22;47381;28.206;112.926;2022-07-03T09:18:09;30.60;50.80
41953;DHT22;47381;28.206;112.926;2022-07-03T09:20:42;30.60;51.40
41953;DHT22;47381;28.206;112.926;2022-07-03T09:23:18;30.60;50.90
41953;DHT22;47381;28.206;112.926;2022-07-03T09:25:59;30.60;50.80
41953;DHT22;47381;28.206;112.926;2022-07-03T09:28:50;30.60;50.70
41953;DHT22;47381;28.206;112.926;2022-07-03T09:31:38;30.60;50.80
41953;DHT22;47381;28.206;112.926;2022-07-03T09:34:06;30.60;50.80
41953;DHT22;47381;28.206;112.926;2022-07-03T09:36:51;30.60;50.70
41953;DHT22;47381;28.206;112.926;2022-07-03T09:39:38;30.60;50.50
41953;DHT22;47381;28.206;112.926;2022-07-03T09:42:07;30.60;50.40
41953;DHT22;47381;28.206;112.926;2022-07-03T09:44:42;30.60;50.30
41953;DHT22;47381;28.206;112.926;2022-07-03T09:47:32;30.60;50.30
41953;DHT22;47381;28.206;112.926;2022-07-03T09:50:01;30.60;50.20
41953;DHT22;47381;28.206;112.926;2022-07-03T09:52:47;30.60;50.10
41953;DHT22;47381;28.206;112.926;2022-07-03T09:55:18;30.60;49.80
41953;DHT22;47381;28.206;112.926;2022-07-03T10:00:31;30.60;49.70
41953;DHT22;47381;28.206;112.926;2022-07-03T10:03:07;30.60;49.70
41953;DHT22;47381;28.206;112.926;2022-07-03T10:05:42;30.50;49.60
41953;DHT22;47381;28.206;112.926;2022-07-03T10:08:15;30.50;49.50
41953;DHT22;47381;28.206;112.926;2022-07-03T10:10:44;30.60;49.50
41953;DHT22;47381;28.206;112.926;2022-07-03T10:13:13;30.50;49.40
41953;DHT22;47381;28.206;112.926;2022-07-03T10:15:41;30.50;49.30
41953;DHT22;47381;28.206;112.926;2022-07-03T10:18:13;30.50;49.10
41953;DHT22;47381;28.206;112.926;2022-07-03T10:20:51;30.50;49.00
41953;DHT22;47381;28.206;112.926;2022-07-03T10:23:38;30.50;49.00
41953;DHT22;47381;28.206;112.926;2022-07-03T10:26:09;30.50;48.70
41953;DHT22;47381;28.206;112.926;2022-07-03T10:28:36;30.50;48.50
41953;DHT22;47381;28.206;112.926;2022-07-03T10:31:06;30.50;48.20
41953;DHT22;47381;28.206;112.926;2022-07-03T10:33:34;30.50;47.80
41953;DHT22;47381;28.206;112.926;2022-07-03T10:36:05;30.50;48.00
41953;DHT22;47381;28.206;112.926;2022-07-03T10:38:46;30.50;48.20
41953;DHT22;47381;28.206;112.926;2022-07-03T10:44:08;30.50;48.70
41953;DHT22;47381;28.206;112.926;2022-07-03T10:46:54;30.40;49.00
41953;DHT22;47381;28.206;112.926;2022-07-03T10:49:24;30.50;49.50
41953;DHT22;47381;28.206;112.926;2022-07-03T11:13:13;30.40;49.60
41953;DHT22;47381;28.206;112.926;2022-07-03T11:16:01;30.40;49.50
41953;DHT22;47381;28.206;112.926;2022-07-03T11:18:57;30.40;49.50
41953;DHT22;47381;28.206;112.926;2022-07-03T11:21:33;30.40;49.50
41953;DHT22;47381;28.206;112.926;2022-07-03T11:24:35;30.40;49.40
41953;DHT22;47381;28.206;112.926;2022-07-03T11:30:32;30.40;49.40
41953;DHT22;47381;28.206;112.926;2022-07-03T11:33:00;30.40;49.20
41953;DHT22;47381;28.206;112.926;2022-07-03T11:38:19;30.40;49.20
41953;DHT22;47381;28.206;112.926;2022-07-03T11:40:51;30.40;49.10
41953;DHT22;47381;28.206;112.926;2022-07-03T11:43:20;30.40;49.00
41953;DHT22;47381;28.206;112.926;2022-07-03T11:45:48;30.30;48.90
41953;DHT22;47381;28.206;112.926;2022-07-03T11:48:22;30.30;48.80
41953;DHT22;47381;28.206;112.926;2022-07-03T11:51:09;30.30;48.70
41953;DHT22;47381;28.206;112.926;2022-07-03T11:53:39;30.30;48.70
41953;DHT22;47381;28.206;112.926;2022-07-03T11:56:11;30.30;48.60
41953;DHT22;47381;28.206;112.926;2022-07-03T11:58:52;30.30;48.40
41953;DHT22;47381;28.206;112.926;2022-07-03T12:01:39;30.30;48.50
41953;DHT22;47381;28.206;112.926;2022-07-03T12:04:19;30.30;48.50
41953;DHT22;47381;28.206;112.926;2022-07-03T12:06:50;30.30;48.50
41953;DHT22;47381;28.206;112.926;2022-07-03T12:09:26;30.30;48.40
41953;DHT22;47381;28.206;112.926;2022-07-03T12:12:04;30.30;48.30
41953;DHT22;47381;28.206;112.926;2022-07-03T12:14:38;30.30;48.20
41953;DHT22;47381;28.206;112.926;2022-07-03T12:17:11;30.30;48.20
41953;DHT22;47381;28.206;112.926;2022-07-03T12:19:50;30.30;48.20
41953;DHT22;47381;28.206;112.926;2022-07-03T12:22:27;30.30;48.20
41953;DHT22;47381;28.206;112.926;2022-07-03T12:27:25;30.30;48.10
41953;DHT22;47381;28.206;112.926;2022-07-03T12:29:52;30.20;48.00
41953;DHT22;47381;28.206;112.926;2022-07-03T12:32:20;30.30;48.00
41953;DHT22;47381;28.206;112.926;2022-07-03T12:34:50;30.30;48.10
41953;DHT22;47381;28.206;112.926;2022-07-03T12:37:30;30.30;48.50
41953;DHT22;47381;28.206;112.926;2022-07-03T12:39:58;30.30;48.90
41953;DHT22;47381;28.206;112.926;2022-07-03T12:42:25;30.30;49.20
41953;DHT22;47381;28.206;112.926;2022-07-03T12:45:12;30.30;49.40
41953;DHT22;47381;28.206;112.926;2022-07-03T12:48:13;30.30;49.50
41953;DHT22;47381;28.206;112.926;2022-07-03T12:50:50;30.30;49.20
41953;DHT22;47381;28.206;112.926;2022-07-03T12:53:32;30.20;49.10
41953;DHT22;47381;28.206;112.926;2022-07-03T12:56:10;30.30;49.10
41953;DHT22;47381;28.206;112.926;2022-07-03T12:58:53;30.30;48.70
41953;DHT22;47381;28.206;112.926;2022-07-03T13:01:39;30.30;48.80
41953;DHT22;47381;28.206;112.926;2022-07-03T13:04:07;30.30;48.60
41953;DHT22;47381;28.206;112.926;2022-07-03T13:06:36;30.20;48.40
41953;DHT22;47381;28.206;112.926;2022-07-03T13:09:04;30.30;48.20
41953;DHT22;47381;28.206;112.926;2022-07-03T13:11:40;30.20;48.20
41953;DHT22;47381;28.206;112.926;2022-07-03T13:14:16;30.20;48.30
41953;DHT22;47381;28.206;112.926;2022-07-03T13:16:48;30.30;48.30
41953;DHT22;47381;28.206;112.926;2022-07-03T13:19:20;30.20;48.40
41953;DHT22;47381;28.206;112.926;2022-07-03T13:21:49;30.30;48.50
41953;DHT22;47381;28.206;112.926;2022-07-03T13:24:18;30.20;48.50
41953;DHT22;47381;28.206;112.926;2022-07-03T13:26:47;30.20;48.40
41953;DHT22;47381;28.206;112.926;2022-07-03T13:29:14;30.20;48.30
41953;DHT22;47381;28.206;112.926;2022-07-03T13:31:42;30.20;48.10
41953;DHT22;47381;28.206;112.926;2022-07-03T13:34:12;30.20;47.10
41953;DHT22;47381;28.206;112.926;2022-07-03T13:36:44;30.20;46.60
41953;DHT22;47381;28.206;112.926;2022-07-03T13:39:16;30.20;46.40
41953;DHT22;47381;28.206;112.926;2022-07-03T13:41:56;30.20;46.20
41953;DHT22;47381;28.206;112.926;2022-07-03T13:44:23;30.20;46.20
41953;DHT22;47381;28.206;112.926;2022-07-03T13:46:51;30.20;46.10
41953;DHT22;47381;28.206;112.926;2022-07-03T13:49:29;30.20;46.10
41953;DHT22;47381;28.206;112.926;2022-07-03T13:51:57;30.20;46.20
41953;DHT22;47381;28.206;112.926;2022-07-03T13:54:24;30.20;46.20
41953;DHT22;47381;28.206;112.926;2022-07-03T13:56:53;30.20;46.10
41953;DHT22;47381;28.206;112.926;2022-07-03T13:59:21;30.20;46.10
41953;DHT22;47381;28.206;112.926;2022-07-03T14:01:52;30.20;46.20
41953;DHT22;47381;28.206;112.926;2022-07-03T14:04:20;30.20;46.20
41953;DHT22;47381;28.206;112.926;2022-07-03T14:06:55;30.20;46.20
41953;DHT22;47381;28.206;112.926;2022-07-03T14:09:26;30.20;46.00
41953;DHT22;47381;28.206;112.926;2022-07-03T14:12:15;30.20;46.10
41953;DHT22;47381;28.206;112.926;2022-07-03T14:14:42;30.20;46.20
41953;DHT22;47381;28.206;112.926;2022-07-03T14:17:09;30.20;46.00
41953;DHT22;47381;28.206;112.926;2022-07-03T14:19:41;30.20;45.80
41953;DHT22;47381;28.206;112.926;2022-07-03T14:22:31;30.20;45.40
41953;DHT22;47381;28.206;112.926;2022-07-03T14:24:59;30.20;45.20
41953;DHT22;47381;28.206;112.926;2022-07-03T14:27:30;30.20;45.10
41953;DHT22;47381;28.206;112.926;2022-07-03T14:30:16;30.20;44.70
41953;DHT22;47381;28.206;112.926;2022-07-03T14:33:02;30.20;44.40
41953;DHT22;47381;28.206;112.926;2022-07-03T14:35:29;30.10;44.10
41953;DHT22;47381;28.206;112.926;2022-07-03T14:38:01;30.20;44.00
41953;DHT22;47381;28.206;112.926;2022-07-03T14:40:51;30.20;43.80
41953;DHT22;47381;28.206;112.926;2022-07-03T14:43:19;30.10;43.50
41953;DHT22;47381;28.206;112.926;2022-07-03T14:45:47;30.20;43.30
41953;DHT22;47381;28.206;112.926;2022-07-03T14:48:15;30.10;43.20
41953;DHT22;47381;28.206;112.926;2022-07-03T14:51:03;30.20;43.20
41953;DHT22;47381;28.206;112.926;2022-07-03T14:53:31;30.10;43.00
41953;DHT22;47381;28.206;112.926;2022-07-03T14:56:19;30.10;42.80
41953;DHT22;47381;28.206;112.926;2022-07-03T14:58:47;30.10;42.60
41953;DHT22;47381;28.206;112.926;2022-07-03T15:01:20;30.10;42.40
41953;DHT22;47381;28.206;112.926;2022-07-03T15:03:59;30.10;42.30
41953;DHT22;47381;28.206;112.926;2022-07-03T15:06:29;30.10;42.10
41953;DHT22;47381;28.206;112.926;2022-07-03T15:09:03;30.10;42.00
41953;DHT22;47381;28.206;112.926;2022-07-03T15:11:43;30.10;42.00
41953;DHT22;47381;28.206;112.926;2022-07-03T15:14:33;30.10;41.90
41953;DHT22;47381;28.206;112.926;2022-07-03T15:17:05;30.10;41.70
41953;DHT22;47381;28.206;112.926;2022-07-03T15:19:35;30.10;41.60
41953;DHT22;47381;28.206;112.926;2022-07-03T15:22:04;30.10;41.40
41953;DHT22;47381;28.206;112.926;2022-07-03T15:24:40;30.10;41.40
41953;DHT22;47381;28.206;112.926;2022-07-03T15:27:09;30.10;41.40
41953;DHT22;47381;28.206;112.926;2022-07-03T15:32:40;30.10;41.10
41953;DHT22;47381;28.206;112.926;2022-07-03T15:35:11;30.10;41.20
41953;DHT22;47381;28.206;112.926;2022-07-03T15:38:24;30.10;41.20
41953;DHT22;47381;28.206;112.926;2022-07-03T15:40:54;30.00;41.10
41953;DHT22;47381;28.206;112.926;2022-07-03T15:52:11;30.10;40.90
41953;DHT22;47381;28.206;112.926;2022-07-03T15:55:12;30.00;40.80
41953;DHT22;47381;28.206;112.926;2022-07-03T15:58:04;30.00;40.60
41953;DHT22;47381;28.206;112.926;2022-07-03T16:00:39;30.10;40.70
41953;DHT22;47381;28.206;112.926;2022-07-03T16:03:34;30.10;40.90
41953;DHT22;47381;28.206;112.926;2022-07-03T16:06:04;30.00;41.30
41953;DHT22;47381;28.206;112.926;2022-07-03T16:08:32;30.00;41.40
41953;DHT22;47381;28.206;112.926;2022-07-03T16:11:05;30.00;41.60
41953;DHT22;47381;28.206;112.926;2022-07-03T16:13:33;30.10;41.50
41953;DHT22;47381;28.206;112.926;2022-07-03T16:16:01;30.10;41.10
41953;DHT22;47381;28.206;112.926;2022-07-03T16:18:33;30.00;40.60
41953;DHT22;47381;28.206;112.926;2022-07-03T16:21:01;30.00;40.00
41953;DHT22;47381;28.206;112.926;2022-07-03T16:23:34;30.00;39.90
41953;DHT22;47381;28.206;112.926;2022-07-03T16:26:05;30.00;39.90
41953;DHT22;47381;28.206;112.926;2022-07-03T16:28:39;30.00;40.00
41953;DHT22;47381;28.206;112.926;2022-07-03T16:31:10;30.00;40.10
41953;DHT22;47381;28.206;112.926;2022-07-03T16:33:47;30.00;40.40
41953;DHT22;47381;28.206;112.926;2022-07-03T16:36:22;30.00;40.70
41953;DHT22;47381;28.206;112.926;2022-07-03T16:39:13;30.00;41.00
41953;DHT22;47381;28.206;112.926;2022-07-03T16:41:42;30.00;41.40
41953;DHT22;47381;28.206;112.926;2022-07-03T16:47:11;30.00;42.30
41953;DHT22;47381;28.206;112.926;2022-07-03T16:49:41;30.00;42.40
41953;DHT22;47381;28.206;112.926;2022-07-03T16:55:15;30.00;42.60
41953;DHT22;47381;28.206;112.926;2022-07-03T16:58:03;30.00;42.90
41953;DHT22;47381;28.206;112.926;2022-07-03T17:00:33;30.00;43.10
41953;DHT22;47381;28.206;112.926;2022-07-03T17:03:05;30.00;43.30
41953;DHT22;47381;28.206;112.926;2022-07-03T17:05:32;30.00;43.40
41953;DHT22;47381;28.206;112.926;2022-07-03T17:07:59;30.00;43.50
41953;DHT22;47381;28.206;112.926;2022-07-03T17:10:27;30.00;43.60
41953;DHT22;47381;28.206;112.926;2022-07-03T17:12:58;30.00;43.70